Aeroporto :
LOGIN :

Iscrizione | Disclaimer

   EN    FR    IT 

 










Sommario :    VFR   VFR Marginale   IFR   IFR Intensivo   IFR Molto Intensivo
Visibilità : 
Base nubi : 
>= 8 km
>= 3000ft
5 / 8 km
1000 / 3000 ft
1500m / 5 km
500 / 1000 ft
800 / 1500m
200 / 500 ft
< 800m
< 200 ft
Simboli :   Temporali  Nebbia  Neve Forte  Precipitazioni Forti  Vento > 20 kt
SIGMETs :   Varie  Temporali  Ghiacco  Turbolenza  Onda orograficha  Ceneri Vulcaniche






- Altitudine del aeroporto : 194 ft
- Codice IATA : ANE


LFJR - Angers Marcé

ULTIMO METAR :
  • 291400Z AUTO 24022KT 9999 ///TCU 12/02 Q0999

METARs OBSOLETI :
  • 291330Z AUTO 24019KT 9999 FEW042/// ///TCU 12/01 Q0998
  • 291300Z AUTO 26009KT 240V310 9999 FEW042/// SCT058/// BKN076/// ///TCU 10/04 Q0999
  • 291230Z AUTO 28014G27KT 240V330 9999 SCT036 BKN042 BKN052 09/03 Q0999
  • 291200Z AUTO 25018KT 9999 SCT036 SCT044 11/04 Q0998
  • 291130Z AUTO 25018KT 9999 FEW028 BKN036 BKN043 11/04 Q0998

Previsioni scadute.



MetMap, La meteo Aeronautica in un colpo d'occhio ! - Copyright ORBIFLY Dicembre 2007 - Disclaimer

ORBIFLY MET'MAP TEAM :

Programmazione e sviluppo : Alexandra Zaïnal
Concezione : Baudouin d'Aumeries
Aiuto per la programmazione : Marc-Olivier Méhu
Supporto tecnico e logistico : Manuel Goepfert
Aiuto per la traduzione : Arnaldo La Scala

Contatto : metmap@orbifly.com




FONTI E CREDITI :

   NOAA